Time;durP1;ratioP1;P1;durP2;ratioP2;P2;SDS_P1;SDS_P2;PMS_P1;PMS_P2;Temp;Humidity;BMP_temperature;BMP_pressure;BME280_temperature;BME280_humidity;BME280_pressure;Samples;Min_cycle;Max_cycle;Signal;HPM_P1;HPM_P2
2024/03/06 00:00:17;;;;;;;6.10;3.53;;;;;;;6.30;65.50;100041.88;10445113;28;20275;-60
2024/03/06 00:05:19;;;;;;;5.93;2.88;;;;;;;6.26;65.67;100048.13;10430090;28;20140;-59
2024/03/06 00:10:21;;;;;;;5.32;3.20;;;;;;;6.32;65.67;100054.81;10430332;28;20057;-60
2024/03/06 00:15:24;;;;;;;7.10;3.97;;;;;;;6.33;65.46;100057.34;10427066;28;20481;-60
2024/03/06 00:20:26;;;;;;;9.90;4.68;;;;;;;6.30;65.72;100061.81;10431384;28;20540;-60
2024/03/06 00:25:29;;;;;;;8.77;4.43;;;;;;;6.25;65.51;100067.19;10428602;28;20539;-60
2024/03/06 00:30:31;;;;;;;8.52;3.70;;;;;;;6.29;65.67;100078.28;10432015;28;20390;-59
2024/03/06 00:35:33;;;;;;;7.63;3.67;;;;;;;6.26;65.46;100079.28;10429542;28;20053;-60
2024/03/06 00:40:35;;;;;;;10.10;3.47;;;;;;;6.25;65.26;100085.38;10429283;28;20114;-60
2024/03/06 00:45:37;;;;;;;6.57;3.28;;;;;;;6.19;65.02;100097.72;10431981;28;20073;-60
2024/03/06 00:50:39;;;;;;;19.05;3.50;;;;;;;6.03;65.34;100089.69;10429347;28;20148;-59
2024/03/06 00:55:41;;;;;;;7.97;3.25;;;;;;;5.90;65.42;100095.41;10429686;28;20051;-59
2024/03/06 01:00:43;;;;;;;6.78;2.80;;;;;;;5.75;65.07;100106.34;10427712;28;20056;-59
2024/03/06 01:05:46;;;;;;;7.13;3.35;;;;;;;5.42;66.23;100105.84;10430816;28;20056;-59
2024/03/06 01:10:48;;;;;;;62.45;4.82;;;;;;;5.42;66.19;100103.25;10431226;28;20532;-59
2024/03/06 01:15:50;;;;;;;22.95;3.38;;;;;;;5.43;66.28;100103.19;10425168;28;20152;-59
2024/03/06 01:20:52;;;;;;;76.80;3.67;;;;;;;5.37;66.09;100098.22;10426313;28;20041;-59
2024/03/06 01:25:54;;;;;;;54.55;3.45;;;;;;;5.26;66.11;100097.78;10428384;28;20311;-59
2024/03/06 01:30:58;;;;;;;174.85;6.15;;;;;;;5.06;66.03;100099.38;10424600;28;20129;-59
2024/03/06 01:36:01;;;;;;;85.57;4.10;;;;;;;5.09;66.40;100099.25;10426998;28;20509;-59
2024/03/06 01:41:04;;;;;;;39.55;4.68;;;;;;;4.90;67.00;100098.19;10426007;28;20044;-60
2024/03/06 01:46:07;;;;;;;43.33;3.17;;;;;;;4.76;67.53;100101.22;10425879;28;20075;-60
2024/03/06 01:51:09;;;;;;;72.40;4.72;;;;;;;4.72;67.71;100094.47;10425214;28;20085;-59
2024/03/06 01:56:17;;;;;;;61.28;4.80;;;;;;;4.90;67.22;100104.25;10425812;28;20131;-59
2024/03/06 02:01:21;;;;;;;40.92;3.38;;;;;;;4.91;67.35;100105.91;10428713;28;20041;-59
2024/03/06 02:06:23;;;;;;;97.03;5.00;;;;;;;4.76;67.75;100110.78;10441180;28;20132;-60
2024/03/06 02:11:25;;;;;;;120.22;4.32;;;;;;;4.82;67.44;100119.16;10427598;28;20671;-60
2024/03/06 02:16:27;;;;;;;27.33;3.40;;;;;;;4.90;67.16;100124.97;10458993;28;20386;-60
2024/03/06 02:21:30;;;;;;;12.02;2.42;;;;;;;4.90;67.18;100134.47;10427389;28;20041;-60
2024/03/06 02:26:32;;;;;;;4.93;2.40;;;;;;;4.88;67.07;100129.34;10432545;28;20436;-59
2024/03/06 02:31:34;;;;;;;3.63;2.08;;;;;;;5.03;66.95;100127.97;10435644;28;20128;-60
2024/03/06 02:36:36;;;;;;;81.88;5.05;;;;;;;5.19;66.70;100123.94;10437115;28;20045;-60
2024/03/06 02:41:38;;;;;;;9.85;2.05;;;;;;;5.06;66.84;100135.66;10431454;28;20179;-59
2024/03/06 02:46:40;;;;;;;16.77;3.25;;;;;;;4.96;66.75;100144.63;10436142;28;20057;-59
2024/03/06 02:51:42;;;;;;;5.90;2.00;;;;;;;4.99;66.69;100153.16;10434549;28;20405;-60
2024/03/06 02:56:44;;;;;;;39.78;3.50;;;;;;;4.93;66.72;100160.28;10432519;28;20455;-60
2024/03/06 03:01:46;;;;;;;15.18;2.40;;;;;;;4.95;66.55;100161.94;10416484;28;20570;-60
2024/03/06 03:06:48;;;;;;;89.38;3.78;;;;;;;4.89;66.79;100156.09;10434584;28;20918;-60
2024/03/06 03:11:50;;;;;;;8.10;1.98;;;;;;;4.99;66.62;100152.28;10418174;28;20056;-61
2024/03/06 03:16:53;;;;;;;72.22;3.33;;;;;;;4.94;66.38;100141.25;10434810;28;20044;-60
2024/03/06 03:21:55;;;;;;;43.17;3.10;;;;;;;4.92;66.41;100143.06;10429388;28;20099;-59
2024/03/06 03:26:57;;;;;;;114.10;4.43;;;;;;;4.92;66.23;100150.81;10430544;28;20056;-59
2024/03/06 03:31:59;;;;;;;36.53;3.83;;;;;;;4.78;66.40;100158.22;10432819;28;20134;-59
2024/03/06 03:37:02;;;;;;;5.50;1.90;;;;;;;4.71;66.69;100152.38;10431145;28;20543;-60
2024/03/06 03:42:06;;;;;;;2.50;1.55;;;;;;;4.70;67.00;100167.06;10431658;28;20095;-60
2024/03/06 03:47:08;;;;;;;12.88;2.25;;;;;;;4.79;66.72;100157.28;10432556;28;20118;-60
2024/03/06 03:52:11;;;;;;;62.88;3.80;;;;;;;4.83;66.57;100158.88;10432492;28;20059;-60
2024/03/06 03:57:14;;;;;;;84.63;3.33;;;;;;;4.80;66.58;100165.00;10424549;28;20051;-59
2024/03/06 04:02:16;;;;;;;75.05;4.18;;;;;;;4.74;66.17;100179.94;10426438;28;20151;-59
2024/03/06 04:07:18;;;;;;;49.05;4.57;;;;;;;4.79;66.33;100184.06;10426022;28;20091;-59
2024/03/06 04:12:22;;;;;;;90.72;3.75;;;;;;;4.82;66.19;100183.13;10406527;28;20109;-59
2024/03/06 04:17:25;;;;;;;44.63;2.72;;;;;;;4.91;66.12;100180.22;10423851;28;20183;-59
2024/03/06 04:22:28;;;;;;;64.75;3.22;;;;;;;4.94;65.98;100183.56;10425077;28;20444;-60
2024/03/06 04:27:31;;;;;;;67.97;4.05;;;;;;;4.94;66.03;100187.91;10424332;28;20094;-59
2024/03/06 04:32:33;;;;;;;5.55;1.92;;;;;;;4.92;66.16;100194.88;10425238;28;20159;-59
2024/03/06 04:37:35;;;;;;;3.22;1.67;;;;;;;4.84;66.45;100199.47;10423290;28;20057;-59
2024/03/06 04:42:37;;;;;;;47.42;3.13;;;;;;;4.75;66.15;100205.78;10424061;28;20359;-59
2024/03/06 04:47:39;;;;;;;20.40;2.67;;;;;;;4.69;66.39;100221.53;10425956;28;20386;-59
2024/03/06 04:52:43;;;;;;;40.40;2.75;;;;;;;4.70;66.42;100231.81;10425524;28;20051;-60
2024/03/06 04:57:45;;;;;;;53.25;2.38;;;;;;;4.67;66.26;100226.75;10425057;28;20044;-59
2024/03/06 05:02:49;;;;;;;4.95;1.95;;;;;;;4.67;66.24;100226.75;10422958;28;20116;-60
2024/03/06 05:08:10;;;;;;;41.03;2.97;;;;;;;4.65;66.32;100238.06;10425061;28;20043;-60
2024/03/06 05:13:29;;;;;;;21.43;2.03;;;;;;;4.63;66.29;100234.66;10424231;28;20048;-59
2024/03/06 05:18:49;;;;;;;4.45;1.55;;;;;;;4.61;66.53;100247.66;10423408;28;20045;-59
2024/03/06 05:24:09;;;;;;;43.15;2.33;;;;;;;4.59;66.40;100259.81;10424780;28;20090;-60
2024/03/06 05:29:28;;;;;;;8.82;2.45;;;;;;;4.53;66.40;100261.75;10423715;28;20131;-59
2024/03/06 05:34:47;;;;;;;7.05;1.98;;;;;;;4.53;66.42;100261.75;10422898;28;20060;-59
2024/03/06 05:40:08;;;;;;;2.47;1.40;;;;;;;4.46;66.46;100274.00;10422415;28;20041;-59
2024/03/06 05:45:28;;;;;;;3.35;1.65;;;;;;;4.43;66.51;100284.44;10423120;28;20415;-60
2024/03/06 05:50:47;;;;;;;3.05;1.92;;;;;;;4.40;66.47;100286.28;10422071;28;20028;-60
2024/03/06 05:56:07;;;;;;;23.88;2.15;;;;;;;4.36;66.28;100293.31;10422880;28;20128;-59
2024/03/06 06:01:26;;;;;;;21.67;2.58;;;;;;;4.30;66.70;100300.38;10427565;28;20033;-60
2024/03/06 06:06:29;;;;;;;4.00;2.10;;;;;;;4.23;66.86;100304.88;10432141;28;20136;-59
2024/03/06 06:11:33;;;;;;;2.72;1.80;;;;;;;4.26;66.90;100316.91;10432032;28;20521;-60
2024/03/06 06:16:40;;;;;;;3.38;1.98;;;;;;;4.24;67.02;100309.19;10428501;28;20037;-59
2024/03/06 06:21:42;;;;;;;2.65;1.70;;;;;;;4.39;66.56;100313.91;10427605;28;20520;-59
2024/03/06 06:26:44;;;;;;;3.67;2.00;;;;;;;4.50;66.52;100326.56;10432199;28;21793;-59
2024/03/06 06:31:46;;;;;;;5.13;1.95;;;;;;;4.59;66.21;100329.75;10429297;28;20842;-59
2024/03/06 06:36:48;;;;;;;2.58;1.80;;;;;;;4.55;66.38;100335.06;10430409;28;20045;-59
2024/03/06 06:41:51;;;;;;;2.70;1.67;;;;;;;4.61;66.14;100337.47;10444782;28;20328;-59
2024/03/06 06:46:53;;;;;;;2.67;1.55;;;;;;;4.68;65.87;100350.19;10429048;28;20045;-59
2024/03/06 06:51:55;;;;;;;112.18;3.58;;;;;;;4.67;65.91;100356.28;10429028;28;20048;-59
2024/03/06 06:56:57;;;;;;;37.15;2.03;;;;;;;4.67;66.02;100365.78;10461882;28;20040;-59
2024/03/06 07:01:59;;;;;;;4.68;2.53;;;;;;;4.72;66.04;100358.72;10428553;28;20374;-59
2024/03/06 07:07:02;;;;;;;3.38;1.98;;;;;;;4.83;66.12;100381.72;10431800;28;20061;-58
2024/03/06 07:12:04;;;;;;;2.00;1.50;;;;;;;4.97;65.67;100377.00;10427792;28;20057;-59
2024/03/06 07:17:07;;;;;;;4.15;1.90;;;;;;;5.15;65.79;100385.06;10427897;28;20084;-59
2024/03/06 07:22:09;;;;;;;5.30;3.03;;;;;;;5.32;65.40;100381.97;10429384;28;20049;-59
2024/03/06 07:27:11;;;;;;;2.40;1.55;;;;;;;5.36;64.98;100391.34;10423436;28;20264;-59
2024/03/06 07:32:13;;;;;;;2.88;1.42;;;;;;;5.50;65.07;100389.16;10427601;28;20073;-59
2024/03/06 07:37:16;;;;;;;3.10;1.60;;;;;;;5.72;64.60;100400.53;10428395;28;20512;-60
2024/03/06 07:42:18;;;;;;;2.15;1.40;;;;;;;5.76;64.43;100398.72;10427026;28;20059;-59
2024/03/06 07:47:20;;;;;;;3.60;1.88;;;;;;;5.91;64.28;100401.63;10424457;28;20462;-59
2024/03/06 07:52:22;;;;;;;2.88;1.85;;;;;;;5.88;64.29;100406.09;10425574;28;20119;-59
2024/03/06 07:57:24;;;;;;;3.60;2.17;;;;;;;5.95;64.29;100411.03;10427606;28;20527;-59
2024/03/06 08:02:28;;;;;;;5.47;2.63;;;;;;;6.17;64.11;100414.59;10424496;28;20094;-59
2024/03/06 08:07:30;;;;;;;4.80;2.92;;;;;;;6.23;63.69;100408.34;10427530;28;20523;-59
2024/03/06 08:12:32;;;;;;;5.30;2.28;;;;;;;6.42;63.63;100422.41;10424337;28;20466;-59
2024/03/06 08:17:34;;;;;;;4.88;2.35;;;;;;;6.73;63.08;100427.38;10425133;28;20048;-60
2024/03/06 08:22:38;;;;;;;4.75;2.42;;;;;;;6.80;63.20;100421.03;10424127;28;20052;-60
2024/03/06 08:27:42;;;;;;;4.93;2.97;;;;;;;7.07;62.71;100431.28;10427880;28;20056;-60
2024/03/06 08:32:44;;;;;;;5.05;2.92;;;;;;;7.38;62.50;100432.72;10425054;28;20208;-60
2024/03/06 08:37:46;;;;;;;8.13;3.53;;;;;;;7.61;61.99;100441.31;10443101;28;20067;-59
2024/03/06 08:42:49;;;;;;;7.55;3.70;;;;;;;7.27;61.89;100445.28;10423476;28;20036;-60
2024/03/06 08:47:53;;;;;;;6.68;3.70;;;;;;;7.32;62.33;100454.63;10425033;28;20063;-59
2024/03/06 08:52:56;;;;;;;9.13;3.92;;;;;;;7.26;62.47;100454.00;10423587;28;20101;-59
2024/03/06 08:58:01;;;;;;;9.25;4.43;;;;;;;7.41;62.46;100461.19;10423886;28;20509;-60
2024/03/06 09:03:03;;;;;;;6.18;3.67;;;;;;;7.24;62.71;100468.81;10424546;28;20052;-60
2024/03/06 09:08:06;;;;;;;9.18;4.00;;;;;;;7.01;62.93;100464.47;10424917;28;20688;-60
2024/03/06 09:13:11;;;;;;;11.13;3.80;;;;;;;6.96;63.12;100479.38;10424381;28;20045;-60
2024/03/06 09:18:13;;;;;;;7.40;4.05;;;;;;;6.90;62.81;100475.25;10424483;28;20150;-60
2024/03/06 09:23:15;;;;;;;8.45;3.88;;;;;;;6.79;62.98;100480.00;10423795;28;20803;-60
2024/03/06 09:28:18;;;;;;;9.98;4.30;;;;;;;6.85;63.24;100489.31;10425585;28;20063;-59
2024/03/06 09:33:20;;;;;;;13.60;3.97;;;;;;;7.07;63.29;100495.44;10408318;28;20080;-59
2024/03/06 09:38:22;;;;;;;8.75;4.47;;;;;;;7.22;62.81;100504.44;10422842;28;20048;-60
2024/03/06 09:43:24;;;;;;;8.75;4.78;;;;;;;7.15;62.50;100509.03;10423205;28;20041;-59
2024/03/06 09:48:30;;;;;;;26.27;5.35;;;;;;;7.12;63.07;100509.97;10422224;28;20053;-59
2024/03/06 09:53:32;;;;;;;10.35;4.60;;;;;;;7.46;62.88;100508.72;10423869;28;20049;-59
2024/03/06 09:58:35;;;;;;;10.65;5.18;;;;;;;7.25;62.64;100507.78;10425045;28;20742;-52
2024/03/06 10:03:37;;;;;;;15.35;6.25;;;;;;;7.22;62.93;100515.72;10421306;28;20366;-54
2024/03/06 10:08:43;;;;;;;24.63;5.57;;;;;;;7.10;62.77;100514.38;10420504;28;20068;-55
2024/03/06 10:13:45;;;;;;;11.05;5.25;;;;;;;7.26;62.98;100511.22;10424175;28;20048;-50
2024/03/06 10:18:47;;;;;;;9.85;5.25;;;;;;;7.69;61.86;100508.72;10453409;28;20056;-54
2024/03/06 10:23:57;;;;;;;11.10;5.57;;;;;;;7.79;61.38;100515.25;10403929;28;20390;-52
2024/03/06 10:29:01;;;;;;;12.37;6.43;;;;;;;7.90;61.70;100518.25;10424001;28;20132;-50
2024/03/06 10:34:03;;;;;;;9.65;5.93;;;;;;;7.80;61.59;100525.59;10423433;28;20044;-50
2024/03/06 10:39:08;;;;;;;11.27;6.20;;;;;;;8.01;61.64;100518.69;10421610;28;20858;-52
2024/03/06 10:44:15;;;;;;;12.10;6.38;;;;;;;8.58;60.49;100526.78;10425160;28;20195;-54
2024/03/06 10:49:19;;;;;;;9.90;5.53;;;;;;;8.76;60.33;100506.88;10421793;28;20075;-55
2024/03/06 10:54:26;;;;;;;15.40;6.60;;;;;;;8.86;60.04;100510.78;10428423;28;20049;-50
2024/03/06 10:59:29;;;;;;;11.93;5.88;;;;;;;8.84;59.34;100508.25;10429321;28;20575;-51
2024/03/06 11:04:35;;;;;;;11.13;5.70;;;;;;;9.01;59.37;100511.88;10428134;28;20236;-52
2024/03/06 11:09:38;;;;;;;12.07;5.95;;;;;;;9.37;59.48;100511.06;10428741;28;20080;-53
2024/03/06 11:14:41;;;;;;;12.48;5.93;;;;;;;9.57;58.54;100513.63;10426802;28;20045;-54
2024/03/06 11:20:06;;;;;;;11.73;5.50;;;;;;;9.78;56.99;100511.81;10427572;28;20618;-52
2024/03/06 11:25:08;;;;;;;10.38;5.57;;;;;;;9.78;58.67;100508.34;10428113;28;20424;-53
2024/03/06 11:30:13;;;;;;;11.65;5.68;;;;;;;9.30;58.53;100512.25;10409262;28;20304;-55
2024/03/06 11:35:18;;;;;;;10.40;5.70;;;;;;;9.16;59.19;100511.19;10412991;28;20501;-55
2024/03/06 11:40:24;;;;;;;11.88;6.00;;;;;;;9.14;58.86;100506.03;10429556;28;20044;-54
2024/03/06 11:45:32;;;;;;;11.15;6.03;;;;;;;9.23;59.08;100495.19;10428202;28;20298;-53
2024/03/06 11:50:37;;;;;;;11.93;5.53;;;;;;;9.11;58.79;100500.13;10429521;28;20041;-49
2024/03/06 11:55:42;;;;;;;11.52;6.03;;;;;;;8.95;59.20;100497.34;10430026;28;20037;-55
2024/03/06 12:00:48;;;;;;;12.60;6.07;;;;;;;9.19;58.97;100491.03;10429466;28;20056;-54
2024/03/06 12:05:53;;;;;;;10.43;5.88;;;;;;;9.42;58.65;100482.16;10429436;28;20436;-55
2024/03/06 12:10:58;;;;;;;10.88;5.50;;;;;;;9.61;58.23;100486.44;10428382;28;20056;-54
2024/03/06 12:16:06;;;;;;;10.93;6.03;;;;;;;9.49;57.84;100481.78;10430017;28;20523;-54
2024/03/06 12:21:17;;;;;;;10.10;5.32;;;;;;;9.79;57.99;100478.69;10429409;28;20227;-51
2024/03/06 12:26:22;;;;;;;10.88;5.35;;;;;;;9.94;57.15;100478.78;10427939;28;20509;-54
2024/03/06 12:31:28;;;;;;;10.60;5.40;;;;;;;10.02;57.32;100467.97;10428451;28;20440;-54
2024/03/06 12:36:47;;;;;;;10.95;5.18;;;;;;;10.32;56.90;100467.28;10426765;28;20055;-55
2024/03/06 12:41:51;;;;;;;9.70;4.90;;;;;;;10.53;56.45;100462.75;10427523;28;20053;-56
2024/03/06 12:46:54;;;;;;;9.38;4.80;;;;;;;10.63;56.43;100474.44;10423539;28;20096;-57
2024/03/06 12:51:58;;;;;;;9.35;4.97;;;;;;;10.86;55.98;100461.00;10457153;28;20048;-55
2024/03/06 12:57:08;;;;;;;10.63;5.07;;;;;;;10.82;55.74;100454.25;10425864;28;20045;-54
2024/03/06 13:02:15;;;;;;;10.60;4.72;;;;;;;11.03;55.53;100450.47;10426345;28;20171;-56
2024/03/06 13:07:23;;;;;;;12.73;6.45;;;;;;;11.23;55.31;100449.47;10427398;28;20060;-54
2024/03/06 13:12:26;;;;;;;10.27;5.07;;;;;;;11.30;55.61;100450.81;10422239;28;20138;-55
2024/03/06 13:17:31;;;;;;;9.65;5.00;;;;;;;11.19;54.96;100438.28;10420858;28;20076;-53
2024/03/06 13:22:38;;;;;;;10.82;5.15;;;;;;;11.32;54.93;100438.47;10424272;28;20738;-55
2024/03/06 13:27:44;;;;;;;6.82;4.50;;;;;;;11.39;54.19;100449.47;10406739;28;20059;-57
2024/03/06 13:32:48;;;;;;;7.90;4.00;;;;;;;11.62;53.96;100449.06;10420933;28;20041;-51
2024/03/06 13:37:53;;;;;;;7.35;4.15;;;;;;;12.24;52.98;100441.06;10423163;28;20504;-56
2024/03/06 13:42:59;;;;;;;8.48;4.78;;;;;;;12.24;52.63;100443.69;10421909;28;20447;-54
2024/03/06 13:48:13;;;;;;;8.40;4.07;;;;;;;12.17;52.03;100444.97;10423861;28;20554;-57
2024/03/06 13:53:17;;;;;;;10.38;5.25;;;;;;;12.40;52.36;100448.88;10452754;28;20183;-58
2024/03/06 13:58:21;;;;;;;7.28;4.35;;;;;;;12.76;51.81;100442.28;10404667;28;20048;-55
2024/03/06 14:03:24;;;;;;;8.98;4.68;;;;;;;12.91;51.16;100436.13;10420082;28;20045;-58
2024/03/06 14:08:31;;;;;;;11.10;5.15;;;;;;;13.21;50.28;100437.78;10423747;28;20529;-52
2024/03/06 14:13:37;;;;;;;8.27;4.35;;;;;;;13.12;50.42;100435.72;10421883;28;20523;-57
2024/03/06 14:18:41;;;;;;;6.85;4.35;;;;;;;13.36;49.92;100440.28;10425167;28;20459;-58
2024/03/06 14:23:44;;;;;;;8.77;4.80;;;;;;;13.37;49.26;100439.34;10425708;28;20040;-56
2024/03/06 14:28:47;;;;;;;7.47;4.25;;;;;;;13.36;49.90;100439.44;10431386;28;20060;-57
2024/03/06 14:33:50;;;;;;;8.73;4.25;;;;;;;13.23;49.55;100443.78;10431237;28;20072;-52
2024/03/06 14:38:52;;;;;;;7.40;4.28;;;;;;;12.81;50.38;100448.13;10434117;28;20135;-54
2024/03/06 14:43:54;;;;;;;7.88;4.50;;;;;;;12.49;51.12;100448.34;10433962;28;20045;-55
2024/03/06 14:48:56;;;;;;;8.10;3.95;;;;;;;12.34;51.01;100460.59;10438918;28;20084;-53
2024/03/06 14:54:00;;;;;;;12.20;5.07;;;;;;;12.08;51.48;100456.00;10432810;28;20045;-57
2024/03/06 14:59:05;;;;;;;8.68;4.63;;;;;;;11.93;52.30;100457.69;10433331;28;20056;-55
2024/03/06 15:04:13;;;;;;;7.78;3.88;;;;;;;11.76;53.22;100455.22;10433710;28;20048;-55
2024/03/06 15:09:21;;;;;;;8.77;3.75;;;;;;;11.59;53.47;100459.69;10433155;28;20061;-57
2024/03/06 15:14:28;;;;;;;7.40;3.88;;;;;;;11.43;53.70;100464.06;10433510;28;20049;-55
2024/03/06 15:19:40;;;;;;;7.22;4.40;;;;;;;11.25;54.35;100468.56;10433761;28;20556;-57
2024/03/06 15:24:46;;;;;;;8.38;4.60;;;;;;;10.91;55.39;100473.88;10432753;28;20049;-54
2024/03/06 15:29:48;;;;;;;8.30;4.40;;;;;;;10.78;56.55;100473.66;10432712;28;20052;-56
2024/03/06 15:34:56;;;;;;;10.38;4.90;;;;;;;10.77;56.57;100474.56;10433232;28;20076;-55
2024/03/06 15:39:59;;;;;;;10.60;4.22;;;;;;;10.84;57.18;100473.34;10433050;28;20044;-54
2024/03/06 15:45:05;;;;;;;9.75;4.85;;;;;;;10.85;57.70;100472.38;10431901;28;20064;-52
2024/03/06 15:50:09;;;;;;;8.13;4.45;;;;;;;10.87;58.37;100472.31;10431130;28;20106;-55
2024/03/06 15:55:14;;;;;;;9.57;4.30;;;;;;;10.82;58.96;100479.56;10430800;28;20052;-56
2024/03/06 16:00:25;;;;;;;8.70;4.45;;;;;;;10.82;59.68;100472.56;10429263;28;20041;-53
2024/03/06 16:05:33;;;;;;;10.07;4.85;;;;;;;10.80;59.64;100478.78;10430715;28;20041;-55
2024/03/06 16:10:39;;;;;;;10.18;5.10;;;;;;;10.80;59.63;100479.66;10429985;28;20501;-53
2024/03/06 16:15:41;;;;;;;10.43;5.68;;;;;;;10.77;60.03;100486.78;10430471;28;20094;-57
2024/03/06 16:20:50;;;;;;;8.45;4.32;;;;;;;10.67;60.41;100499.50;10429868;28;20044;-57
2024/03/06 16:25:53;;;;;;;9.05;4.95;;;;;;;10.66;60.35;100499.59;10430886;28;21105;-55
2024/03/06 16:30:55;;;;;;;12.35;5.57;;;;;;;10.63;60.57;100499.72;10426244;28;20226;-54
2024/03/06 16:35:57;;;;;;;14.27;7.55;;;;;;;10.49;60.80;100497.81;10442436;28;20041;-54
2024/03/06 16:41:00;;;;;;;10.52;5.60;;;;;;;10.35;61.25;100505.53;10425837;28;20440;-55
2024/03/06 16:46:03;;;;;;;10.38;5.63;;;;;;;10.26;61.50;100516.41;10424889;28;20178;-55
2024/03/06 16:51:05;;;;;;;11.05;5.60;;;;;;;10.17;61.45;100517.75;10428633;28;20071;-56
2024/03/06 16:56:07;;;;;;;11.23;5.32;;;;;;;10.03;61.73;100522.78;10426805;28;20049;-54
2024/03/06 17:01:10;;;;;;;7.07;3.85;;;;;;;9.90;61.84;100536.50;10429010;28;20076;-57
2024/03/06 17:06:13;;;;;;;9.30;4.57;;;;;;;9.82;61.91;100536.00;10428620;28;20663;-56
2024/03/06 17:11:16;;;;;;;9.02;4.38;;;;;;;9.66;62.00;100535.88;10425429;28;20503;-56
2024/03/06 17:16:18;;;;;;;6.88;4.07;;;;;;;9.45;61.94;100547.28;10426259;28;20115;-56
2024/03/06 17:21:20;;;;;;;9.40;4.32;;;;;;;9.30;62.29;100551.41;10427467;28;20052;-55
2024/03/06 17:26:22;;;;;;;7.85;4.32;;;;;;;9.33;62.34;100558.25;10426411;28;20051;-56
2024/03/06 17:31:24;;;;;;;8.35;4.20;;;;;;;9.35;62.49;100564.25;10428392;28;20047;-54
2024/03/06 17:36:27;;;;;;;8.00;4.13;;;;;;;9.26;62.36;100573.34;10426696;28;20040;-54
2024/03/06 17:41:29;;;;;;;10.07;4.13;;;;;;;9.31;62.36;100580.97;10427713;28;20132;-57
2024/03/06 17:46:31;;;;;;;8.43;4.10;;;;;;;9.32;62.30;100580.06;10427860;28;20045;-55
2024/03/06 17:51:35;;;;;;;10.80;5.53;;;;;;;9.23;61.99;100585.69;10427940;28;20045;-55
2024/03/06 17:56:37;;;;;;;10.40;4.65;;;;;;;9.11;61.62;100599.28;10427496;28;20286;-56
2024/03/06 18:01:39;;;;;;;9.75;4.70;;;;;;;9.12;61.37;100600.94;10427398;28;20045;-56
2024/03/06 18:06:41;;;;;;;9.45;4.53;;;;;;;9.01;60.45;100611.00;10422440;28;20056;-55
2024/03/06 18:11:44;;;;;;;10.95;5.35;;;;;;;8.90;59.94;100613.22;10424159;28;20162;-56
2024/03/06 18:16:46;;;;;;;8.38;4.10;;;;;;;8.79;59.52;100616.31;10424905;28;20123;-56
2024/03/06 18:21:49;;;;;;;10.07;4.90;;;;;;;8.79;59.66;100613.69;10425233;28;20296;-56
2024/03/06 18:26:51;;;;;;;10.32;5.53;;;;;;;8.73;59.76;100613.91;10425625;28;20491;-61
2024/03/06 18:31:53;;;;;;;10.93;5.88;;;;;;;8.65;59.62;100621.22;10424968;28;20063;-60
2024/03/06 18:36:55;;;;;;;13.50;7.03;;;;;;;8.44;60.08;100627.31;10422998;28;20126;-60
2024/03/06 18:41:58;;;;;;;13.93;6.75;;;;;;;8.25;59.93;100629.78;10412342;28;21453;-60
2024/03/06 18:47:21;;;;;;;16.92;8.18;;;;;;;8.13;60.08;100639.81;10419331;28;20543;-61
2024/03/06 18:52:24;;;;;;;18.08;7.97;;;;;;;8.03;60.01;100642.78;10419319;28;20044;-60
2024/03/06 18:57:27;;;;;;;12.15;5.50;;;;;;;7.95;60.02;100641.34;10416252;28;20045;-60
2024/03/06 19:02:31;;;;;;;13.20;7.40;;;;;;;7.88;60.05;100653.75;10422344;28;20226;-60
2024/03/06 19:07:37;;;;;;;13.07;5.95;;;;;;;7.76;60.23;100654.22;10426951;28;20107;-59
2024/03/06 19:12:41;;;;;;;11.35;6.13;;;;;;;7.59;60.53;100660.94;10426166;28;20190;-60
2024/03/06 19:17:44;;;;;;;14.05;7.20;;;;;;;7.51;60.68;100656.00;10425883;28;20044;-59
2024/03/06 19:22:47;;;;;;;12.68;7.47;;;;;;;7.47;60.83;100657.00;10457219;28;20045;-59
2024/03/06 19:27:49;;;;;;;15.27;6.55;;;;;;;7.43;61.08;100665.81;10426416;28;20126;-60
2024/03/06 19:32:51;;;;;;;17.42;7.50;;;;;;;7.32;60.97;100669.72;10441762;28;20049;-60
2024/03/06 19:37:57;;;;;;;11.32;5.97;;;;;;;7.22;60.89;100664.00;10463644;28;20041;-59
2024/03/06 19:43:00;;;;;;;14.38;7.22;;;;;;;7.12;61.20;100662.59;10426080;28;20844;-59
2024/03/06 19:48:02;;;;;;;15.35;5.95;;;;;;;6.98;61.13;100657.84;10426845;28;20051;-59
2024/03/06 19:53:05;;;;;;;16.77;6.22;;;;;;;6.88;61.24;100661.66;10422130;28;20041;-60
2024/03/06 19:58:08;;;;;;;14.00;6.88;;;;;;;6.84;61.33;100669.59;10426341;28;20052;-60
2024/03/06 20:03:10;;;;;;;17.23;7.50;;;;;;;6.77;61.49;100668.13;10428895;28;20053;-59
2024/03/06 20:08:12;;;;;;;14.07;5.75;;;;;;;6.70;61.82;100666.59;10431114;28;20057;-60
2024/03/06 20:13:15;;;;;;;13.40;5.85;;;;;;;6.64;61.92;100674.59;10430415;28;20049;-60
2024/03/06 20:18:17;;;;;;;13.48;6.35;;;;;;;6.56;62.21;100672.25;10430578;28;20136;-60
2024/03/06 20:23:19;;;;;;;15.63;7.05;;;;;;;6.46;62.56;100672.59;10430709;28;20053;-60
2024/03/06 20:28:21;;;;;;;12.38;6.30;;;;;;;6.45;62.42;100673.50;10429922;28;20180;-59
2024/03/06 20:33:24;;;;;;;14.05;6.90;;;;;;;6.32;62.17;100681.66;10430720;28;20130;-59
2024/03/06 20:38:26;;;;;;;15.40;6.15;;;;;;;6.22;62.35;100682.81;10426643;28;20048;-59
2024/03/06 20:43:28;;;;;;;11.73;6.30;;;;;;;6.10;62.53;100680.56;10420359;28;20053;-59
2024/03/06 20:48:30;;;;;;;13.57;7.22;;;;;;;6.10;62.72;100677.97;10428557;28;20052;-59
2024/03/06 20:53:33;;;;;;;12.98;6.43;;;;;;;6.01;62.97;100685.19;10426722;28;20071;-59
2024/03/06 20:58:35;;;;;;;15.80;7.57;;;;;;;5.94;63.13;100683.66;10427639;28;20832;-59
2024/03/06 21:03:37;;;;;;;15.65;7.10;;;;;;;5.94;63.40;100688.84;10425726;28;20219;-59
2024/03/06 21:08:40;;;;;;;15.70;6.85;;;;;;;5.92;63.32;100683.69;10427066;28;20055;-59
2024/03/06 21:13:43;;;;;;;17.65;8.07;;;;;;;5.85;63.43;100684.78;10429093;28;20049;-59
2024/03/06 21:18:45;;;;;;;19.05;9.13;;;;;;;5.79;63.41;100690.16;10426507;28;20108;-59
2024/03/06 21:23:48;;;;;;;20.45;8.68;;;;;;;5.70;63.15;100681.75;10425842;28;20667;-59
2024/03/06 21:28:53;;;;;;;18.65;8.50;;;;;;;5.54;63.27;100681.31;10425599;28;20099;-59
2024/03/06 21:33:55;;;;;;;14.00;7.57;;;;;;;5.44;63.58;100683.31;10424385;28;20480;-59
2024/03/06 21:38:59;;;;;;;18.02;8.25;;;;;;;5.34;63.82;100687.06;10425610;28;20045;-59
2024/03/06 21:44:03;;;;;;;15.75;7.20;;;;;;;5.36;64.06;100698.25;10424615;28;20056;-59
2024/03/06 21:49:06;;;;;;;16.92;6.97;;;;;;;5.34;63.93;100691.38;10443230;28;20060;-59
2024/03/06 21:54:10;;;;;;;13.80;6.82;;;;;;;5.29;63.88;100695.81;10426145;28;20055;-59
2024/03/06 21:59:12;;;;;;;12.82;6.70;;;;;;;5.19;64.09;100695.22;10427827;28;20041;-61
2024/03/06 22:04:16;;;;;;;15.73;7.47;;;;;;;5.16;64.28;100697.06;10426627;28;20167;-59
2024/03/06 22:09:20;;;;;;;15.20;6.70;;;;;;;5.11;64.36;100694.56;10426939;28;20076;-59
2024/03/06 22:14:23;;;;;;;14.00;7.28;;;;;;;5.08;64.26;100694.66;10426927;28;20049;-60
2024/03/06 22:19:26;;;;;;;19.73;7.82;;;;;;;4.98;64.44;100700.13;10427062;28;20338;-60
2024/03/06 22:24:29;;;;;;;14.20;6.30;;;;;;;4.93;64.39;100704.53;10425691;28;20049;-60
2024/03/06 22:29:31;;;;;;;14.60;7.43;;;;;;;4.89;64.46;100708.09;10426002;28;20053;-61
2024/03/06 22:34:36;;;;;;;15.13;5.63;;;;;;;4.84;64.44;100704.78;10427111;28;20029;-60
2024/03/06 22:39:39;;;;;;;10.50;5.32;;;;;;;4.72;64.87;100689.53;10427388;28;20076;-60
2024/03/06 22:44:41;;;;;;;13.32;6.50;;;;;;;4.65;64.82;100694.00;10434385;28;20041;-60
2024/03/06 22:49:44;;;;;;;14.90;6.25;;;;;;;4.58;64.67;100693.28;10416589;28;20079;-60
2024/03/06 22:54:47;;;;;;;13.20;6.88;;;;;;;4.44;64.47;100699.66;10432681;28;20199;-61
2024/03/06 22:59:49;;;;;;;14.68;6.32;;;;;;;4.32;64.72;100690.44;10434433;28;20052;-60
2024/03/06 23:04:52;;;;;;;10.48;5.05;;;;;;;4.18;64.72;100689.91;10433374;28;20517;-61
2024/03/06 23:09:54;;;;;;;16.83;6.70;;;;;;;4.12;65.06;100686.56;10450364;28;20072;-61
2024/03/06 23:14:56;;;;;;;13.30;5.57;;;;;;;4.15;65.29;100689.94;10427522;28;20496;-61
2024/03/06 23:19:58;;;;;;;13.50;6.80;;;;;;;4.15;65.13;100683.94;10425540;28;20048;-60